Terminal Aerodrome Forecast
Issued by NWS

Home | Current Version | Previous Version | Text Only | Print | Product List | Glossary On
Versions: 1 2 3 4 5 6 7 8 9 10 11 12 13
000
FTUS46 KLOX 310200 AAA
TAFBUR
TAF AMD
KBUR 310258Z 3103/3124 18008KT P6SM SCT150 BKN200
     FM310400 15005KT P6SM BKN150
     FM310900 VRB03KT 3SM -DZ BR BKN008 BKN016
     FM311600 16005KT P6SM BKN020 BKN050
     FM312000 17008KT P6SM BKN020 BKN050
     FM312300 19010KT P6SM -SHRA BKN020 OVC040=

USA.gov is the U.S. government's official web portal to all federal, state and local government web resources and services.